Accueil
METAR-TAF:

METAR-TAF

Aéroports :

Perpignan, France

Aéroport de Perpignan-Rivesaltes

latitude: 42-44N, longitude: 002-52E, altitude: 43 m

Observation

Le bulletin a été fait il y a 37 minutes, à 19:00 UTC
Vent 5 kt de nord/nord-ouest, variant entre ouest/nord-ouest et nord
Température 7°C
Humidité 66%
Pression 1020 hPa
Visibilité 10 km ou plus
pas de nuages en-dessous de 1500 mètres et pas de cumulonimbus.

METAR: LFMP 121900Z AUTO 33005KT 300V010 CAVOK 07/01 Q1020 NOSIG

Heure: 20:37 (19:37 UTC)

Prévision

Le bulletin a été fait il y a 1 heure et 26 minutes, à 18:11 UTC
Prévision valable du 12 à 18 UTC au 13 à 15 UTC
Vent 10 kt de nord-ouest
Visibilité 10 km ou plus
pas de nuages en-dessous de 1500 mètres et pas de cumulonimbus.
Evoluant progressivement
du 12 à 20 UTC au 12 à 22 UTC
Vent 3 kt de direction variable

TAF: LFMP 121811Z 1218/1315 32010KT CAVOK BECMG 1220/1222 VRB03KT

Observations et prévisions météorologiques de plus de 4000 aéroports (messages METAR et TAF).

Les stations disponibles sont représentées par des disques jaunes et rouges sur la carte.

Passer la souris dessus pour voir le nom de la station.

Cliquer dessus pour voir les observations et prévisions météorologiques.

Pour changer de carte: cliquez sur les boutons verts avec une croix noire pour zoomer, sur le bouton vert avec un tiret pour effectuer un zoom arrière, ou sur les flèches vertes pour les cartes adjacentes.


METAR-TAF: